Time;durP1;ratioP1;P1;durP2;ratioP2;P2;SDS_P1;SDS_P2;PMS_P1;PMS_P2;Temp;Humidity;BMP_temperature;BMP_pressure;BME280_temperature;BME280_humidity;BME280_pressure;Samples;Min_cycle;Max_cycle;Signal;HPM_P1;HPM_P2
2023/02/16 00:01:32;;;;;;;8.05;4.43;;;;;;;;;;5070869;28;20083;-49
2023/02/16 00:03:57;;;;;;;6.78;4.57;;;;;;;;;;5070917;28;20603;-49
2023/02/16 00:06:23;;;;;;;9.10;5.03;;;;;;;;;;5071145;28;20107;-50
2023/02/16 00:08:50;;;;;;;11.02;5.43;;;;;;;;;;5071098;28;20055;-49
2023/02/16 00:14:14;;;;;;;7.78;4.40;;;;;;;;;;5071155;28;20033;-49
2023/02/16 00:16:40;;;;;;;6.70;5.10;;;;;;;;;;5070770;28;20051;-49
2023/02/16 00:19:15;;;;;;;8.00;4.35;;;;;;;;;;5070839;28;20036;-49
2023/02/16 00:21:40;;;;;;;9.82;4.93;;;;;;;;;;5070685;28;20016;-50
2023/02/16 00:24:06;;;;;;;7.78;4.45;;;;;;;;;;5070722;28;20540;-50
2023/02/16 00:26:32;;;;;;;9.90;4.93;;;;;;;;;;5070801;28;20025;-49
2023/02/16 00:28:58;;;;;;;11.93;5.18;;;;;;;;;;5069537;28;20026;-49
2023/02/16 00:31:26;;;;;;;8.52;5.05;;;;;;;;;;5072797;28;20675;-50
2023/02/16 00:33:52;;;;;;;7.78;4.10;;;;;;;;;;5074157;28;20049;-49
2023/02/16 00:36:19;;;;;;;8.90;5.25;;;;;;;;;;5074606;28;20090;-49
2023/02/16 00:38:44;;;;;;;10.40;4.60;;;;;;;;;;5072853;28;20032;-49
2023/02/16 00:44:05;;;;;;;6.90;4.35;;;;;;;;;;5074303;28;20045;-50
2023/02/16 00:46:31;;;;;;;7.95;4.40;;;;;;;;;;5074116;28;20056;-49
2023/02/16 00:48:56;;;;;;;8.57;4.35;;;;;;;;;;5072764;28;20078;-50
2023/02/16 00:51:21;;;;;;;5.88;4.00;;;;;;;;;;5074368;28;20497;-49
2023/02/16 00:53:47;;;;;;;8.25;4.43;;;;;;;;;;5072571;28;20402;-49
2023/02/16 00:56:15;;;;;;;7.88;4.35;;;;;;;;;;5073954;28;20454;-49
2023/02/16 00:58:41;;;;;;;7.18;4.30;;;;;;;;;;5073861;28;20028;-50
2023/02/16 01:01:12;;;;;;;10.20;4.90;;;;;;;;;;5073875;28;20387;-50
2023/02/16 01:03:37;;;;;;;7.28;3.60;;;;;;;;;;5072361;28;20044;-49
2023/02/16 01:11:32;;;;;;;9.70;4.63;;;;;;;;;;5073889;28;20165;-49
2023/02/16 01:13:58;;;;;;;6.80;4.60;;;;;;;;;;5073859;28;20518;-50
2023/02/16 01:16:34;;;;;;;11.63;4.50;;;;;;;;;;5072185;28;20075;-49
2023/02/16 01:18:59;;;;;;;12.55;4.47;;;;;;;;;;5073525;28;20024;-50
2023/02/16 01:21:24;;;;;;;8.23;4.28;;;;;;;;;;5055510;28;20127;-50
2023/02/16 01:23:51;;;;;;;5.28;3.95;;;;;;;;;;5073608;28;20041;-50
2023/02/16 01:26:18;;;;;;;6.75;3.78;;;;;;;;;;5055626;28;20016;-49
2023/02/16 01:28:45;;;;;;;7.57;4.15;;;;;;;;;;5073216;28;20032;-50
2023/02/16 01:31:11;;;;;;;6.38;4.45;;;;;;;;;;5073341;28;20023;-49
2023/02/16 01:33:37;;;;;;;8.10;3.92;;;;;;;;;;5072957;28;20044;-49
2023/02/16 01:36:04;;;;;;;8.38;4.47;;;;;;;;;;5073497;28;20032;-49
2023/02/16 01:38:29;;;;;;;9.48;4.43;;;;;;;;;;5073020;28;20028;-50
2023/02/16 01:41:01;;;;;;;7.97;4.32;;;;;;;;;;5071792;28;20039;-49
2023/02/16 01:43:42;;;;;;;6.65;4.30;;;;;;;;;;5073112;28;20126;-50
2023/02/16 01:46:12;;;;;;;8.63;4.13;;;;;;;;;;5072945;28;20074;-49
2023/02/16 01:48:38;;;;;;;8.25;4.35;;;;;;;;;;5072892;28;20107;-50
2023/02/16 01:51:21;;;;;;;8.07;5.15;;;;;;;;;;5072908;28;20561;-49
2023/02/16 01:53:52;;;;;;;5.88;4.22;;;;;;;;;;5072698;28;20029;-50
2023/02/16 01:56:35;;;;;;;10.63;4.45;;;;;;;;;;5072795;28;20035;-49
2023/02/16 01:59:03;;;;;;;10.55;4.38;;;;;;;;;;5071412;28;20429;-49
2023/02/16 02:01:37;;;;;;;7.00;3.85;;;;;;;;;;5071245;28;20025;-50
2023/02/16 02:06:59;;;;;;;9.85;5.20;;;;;;;;;;5072623;28;20651;-49
2023/02/16 02:09:31;;;;;;;9.93;5.53;;;;;;;;;;5072449;28;20029;-49
2023/02/16 02:12:04;;;;;;;10.73;5.15;;;;;;;;;;5072498;28;20035;-49
2023/02/16 02:14:40;;;;;;;13.85;6.03;;;;;;;;;;5070965;28;20063;-49
2023/02/16 02:17:11;;;;;;;8.80;5.47;;;;;;;;;;5072401;28;20054;-50
2023/02/16 02:19:43;;;;;;;8.30;4.57;;;;;;;;;;5070915;28;20028;-50
2023/02/16 02:25:14;;;;;;;10.35;5.78;;;;;;;;;;5072228;28;20041;-49
2023/02/16 02:27:40;;;;;;;9.10;4.90;;;;;;;;;;5072091;28;20053;-49
2023/02/16 02:30:25;;;;;;;9.90;5.00;;;;;;;;;;5070882;28;20017;-49
2023/02/16 02:32:57;;;;;;;12.25;5.57;;;;;;;;;;5070556;28;20055;-49
2023/02/16 02:35:46;;;;;;;11.68;6.05;;;;;;;;;;5070746;28;20089;-49
2023/02/16 02:38:11;;;;;;;6.50;4.07;;;;;;;;;;5070709;28;20058;-49
2023/02/16 02:40:58;;;;;;;5.85;3.72;;;;;;;;;;5070632;28;20020;-49
2023/02/16 02:43:32;;;;;;;10.98;5.15;;;;;;;;;;5070535;28;20032;-49
2023/02/16 02:46:00;;;;;;;12.82;5.35;;;;;;;;;;5070539;28;20024;-49
2023/02/16 02:48:32;;;;;;;8.82;4.38;;;;;;;;;;5071824;28;20413;-49
2023/02/16 02:53:45;;;;;;;8.43;4.60;;;;;;;;;;5069981;28;20036;-49
2023/02/16 03:01:47;;;;;;;6.82;3.85;;;;;;;;;;5070235;28;20028;-49
2023/02/16 03:04:14;;;;;;;8.65;3.72;;;;;;;;;;5070290;28;20056;-49
2023/02/16 03:06:42;;;;;;;8.10;4.22;;;;;;;;;;5071835;28;20056;-49
2023/02/16 03:09:13;;;;;;;7.20;4.40;;;;;;;;;;5071880;28;20024;-49
2023/02/16 03:14:29;;;;;;;5.25;4.07;;;;;;;;;;5071520;28;20055;-49
2023/02/16 03:30:50;;;;;;;9.50;5.15;;;;;;;;;;5071523;28;20406;-49
2023/02/16 03:33:15;;;;;;;9.15;4.55;;;;;;;;;;5071148;28;20054;-49
2023/02/16 03:35:42;;;;;;;10.57;5.35;;;;;;;;;;5071251;28;20112;-49
2023/02/16 03:38:07;;;;;;;6.68;3.92;;;;;;;;;;5071267;28;20475;-49
2023/02/16 03:40:33;;;;;;;12.20;5.45;;;;;;;;;;5069918;28;20059;-49
2023/02/16 03:43:00;;;;;;;8.68;5.25;;;;;;;;;;5071350;28;20025;-49
2023/02/16 03:45:26;;;;;;;7.43;4.50;;;;;;;;;;5071151;28;20021;-49
2023/02/16 03:47:51;;;;;;;12.13;5.20;;;;;;;;;;5071455;28;20469;-49
2023/02/16 03:50:17;;;;;;;12.68;5.63;;;;;;;;;;5071448;28;20173;-49
2023/02/16 03:52:42;;;;;;;8.07;4.32;;;;;;;;;;5071252;28;20024;-49
2023/02/16 03:55:08;;;;;;;5.40;3.15;;;;;;;;;;5071128;28;20467;-49
2023/02/16 03:57:33;;;;;;;8.65;3.80;;;;;;;;;;5071047;28;20028;-49
2023/02/16 03:59:59;;;;;;;8.05;3.80;;;;;;;;;;5071304;28;20024;-49
2023/02/16 04:02:26;;;;;;;10.77;4.90;;;;;;;;;;5070886;28;20028;-49
2023/02/16 04:04:51;;;;;;;8.98;4.95;;;;;;;;;;5072153;28;20562;-49
2023/02/16 04:07:17;;;;;;;7.85;4.70;;;;;;;;;;5075098;28;20099;-49
2023/02/16 04:09:42;;;;;;;9.38;5.00;;;;;;;;;;5074911;28;20496;-49
2023/02/16 04:14:52;;;;;;;8.48;4.15;;;;;;;;;;5074776;28;20079;-49
2023/02/16 04:17:17;;;;;;;8.02;3.78;;;;;;;;;;5074709;28;20421;-49
2023/02/16 04:19:43;;;;;;;7.03;4.22;;;;;;;;;;5074621;28;20036;-49
2023/02/16 04:22:08;;;;;;;6.50;4.25;;;;;;;;;;5074495;28;20024;-49
2023/02/16 04:24:33;;;;;;;6.82;4.47;;;;;;;;;;5074688;28;20029;-49
2023/02/16 04:26:59;;;;;;;8.98;4.70;;;;;;;;;;5074827;28;20033;-49
2023/02/16 04:29:24;;;;;;;12.32;4.18;;;;;;;;;;5074502;28;20486;-49
2023/02/16 04:31:50;;;;;;;9.65;4.25;;;;;;;;;;5074373;28;20106;-49
2023/02/16 04:34:15;;;;;;;9.63;4.32;;;;;;;;;;5074311;28;20538;-49
2023/02/16 04:36:40;;;;;;;10.18;4.90;;;;;;;;;;5074267;28;20032;-49
2023/02/16 04:39:06;;;;;;;6.93;4.57;;;;;;;;;;5074218;28;20116;-49
2023/02/16 04:41:31;;;;;;;8.63;5.13;;;;;;;;;;5074123;28;20024;-49
2023/02/16 04:43:57;;;;;;;9.68;5.32;;;;;;;;;;5074034;28;20048;-49
2023/02/16 04:46:22;;;;;;;12.68;5.82;;;;;;;;;;5074179;28;20021;-49
2023/02/16 04:48:48;;;;;;;13.02;6.10;;;;;;;;;;5074053;28;20068;-49
2023/02/16 04:51:13;;;;;;;9.35;4.80;;;;;;;;;;5074309;28;20082;-49
2023/02/16 04:53:38;;;;;;;6.90;3.92;;;;;;;;;;5073853;28;20077;-49
2023/02/16 04:56:04;;;;;;;9.68;4.57;;;;;;;;;;5073976;28;20027;-49
2023/02/16 04:58:29;;;;;;;7.50;5.20;;;;;;;;;;5072577;28;20507;-49
2023/02/16 05:00:55;;;;;;;8.80;4.68;;;;;;;;;;5073925;28;20032;-49
2023/02/16 05:03:20;;;;;;;11.75;4.95;;;;;;;;;;5073755;28;20761;-49
2023/02/16 05:05:45;;;;;;;8.07;4.03;;;;;;;;;;5073692;28;20409;-49
2023/02/16 05:08:11;;;;;;;9.70;5.15;;;;;;;;;;5073785;28;20044;-49
2023/02/16 05:10:36;;;;;;;12.13;5.75;;;;;;;;;;5073566;28;20016;-49
2023/02/16 05:15:46;;;;;;;9.25;4.15;;;;;;;;;;5073180;28;20020;-49
2023/02/16 05:18:11;;;;;;;8.82;4.60;;;;;;;;;;5073821;28;20512;-49
2023/02/16 05:23:21;;;;;;;9.30;5.22;;;;;;;;;;5073374;28;20465;-49
2023/02/16 05:25:46;;;;;;;6.53;4.05;;;;;;;;;;5073644;28;20104;-49
2023/02/16 05:28:11;;;;;;;8.38;5.32;;;;;;;;;;5073386;28;20076;-49
2023/02/16 05:30:37;;;;;;;11.90;5.50;;;;;;;;;;5073249;28;20100;-49
2023/02/16 05:33:02;;;;;;;10.18;4.82;;;;;;;;;;5073022;28;20114;-50
2023/02/16 05:35:28;;;;;;;10.27;4.68;;;;;;;;;;5073166;28;20040;-49
2023/02/16 05:37:53;;;;;;;8.18;3.92;;;;;;;;;;5073064;28;20047;-49
2023/02/16 05:40:19;;;;;;;10.95;4.60;;;;;;;;;;5073156;28;20027;-49
2023/02/16 05:42:45;;;;;;;21.88;3.65;;;;;;;;;;5071570;28;20093;-49
2023/02/16 05:45:10;;;;;;;10.77;4.80;;;;;;;;;;5073305;28;20028;-49
2023/02/16 05:47:36;;;;;;;6.78;4.03;;;;;;;;;;5071740;28;20020;-49
2023/02/16 05:50:01;;;;;;;5.45;3.90;;;;;;;;;;5071894;28;20028;-49
2023/02/16 05:52:27;;;;;;;8.45;4.50;;;;;;;;;;5073113;28;20027;-49
2023/02/16 05:54:52;;;;;;;8.85;4.05;;;;;;;;;;5072739;28;20017;-50
2023/02/16 05:57:17;;;;;;;8.98;3.78;;;;;;;;;;5072766;28;20025;-49
2023/02/16 05:59:43;;;;;;;6.07;3.60;;;;;;;;;;5072666;28;20051;-49
2023/02/16 06:02:08;;;;;;;6.93;3.72;;;;;;;;;;5072558;28;20111;-49
2023/02/16 06:04:34;;;;;;;7.22;4.03;;;;;;;;;;5072611;28;20025;-49
2023/02/16 06:06:59;;;;;;;10.60;4.07;;;;;;;;;;5072625;28;20048;-49
2023/02/16 06:09:25;;;;;;;6.75;3.70;;;;;;;;;;5071705;28;20037;-49
2023/02/16 06:11:50;;;;;;;8.27;4.57;;;;;;;;;;5072379;28;20032;-49
2023/02/16 06:14:17;;;;;;;6.40;4.10;;;;;;;;;;5072537;28;20017;-49
2023/02/16 06:16:43;;;;;;;7.30;3.35;;;;;;;;;;5071011;28;20041;-49
2023/02/16 06:19:09;;;;;;;8.45;3.55;;;;;;;;;;5072347;28;20463;-49
2023/02/16 06:21:35;;;;;;;8.75;3.35;;;;;;;;;;5071065;28;20031;-49
2023/02/16 06:24:00;;;;;;;9.13;3.90;;;;;;;;;;5072132;28;20035;-49
2023/02/16 06:26:26;;;;;;;6.70;4.10;;;;;;;;;;5070980;28;20063;-49
2023/02/16 06:28:52;;;;;;;5.43;3.72;;;;;;;;;;5071369;28;20024;-49
2023/02/16 06:31:17;;;;;;;6.18;3.72;;;;;;;;;;5072134;28;20115;-49
2023/02/16 06:33:42;;;;;;;6.53;4.53;;;;;;;;;;5071694;28;20044;-49
2023/02/16 06:36:08;;;;;;;5.60;3.75;;;;;;;;;;5072092;28;20032;-49
2023/02/16 06:38:34;;;;;;;4.63;3.08;;;;;;;;;;5071965;28;20025;-49
2023/02/16 06:40:59;;;;;;;8.52;5.28;;;;;;;;;;5071900;28;20065;-49
2023/02/16 06:43:24;;;;;;;7.50;4.28;;;;;;;;;;5072000;28;20174;-49
2023/02/16 06:45:51;;;;;;;8.50;3.88;;;;;;;;;;5070877;28;20020;-49
2023/02/16 06:48:16;;;;;;;5.57;4.03;;;;;;;;;;5072110;28;20024;-49
2023/02/16 06:50:42;;;;;;;9.15;4.18;;;;;;;;;;5071759;28;20028;-48
2023/02/16 06:53:07;;;;;;;5.00;3.55;;;;;;;;;;5071954;28;20386;-49
2023/02/16 06:55:35;;;;;;;6.22;3.08;;;;;;;;;;5070599;28;20462;-49
2023/02/16 06:58:01;;;;;;;8.40;3.85;;;;;;;;;;5071782;28;20031;-49
2023/02/16 07:00:28;;;;;;;7.78;3.53;;;;;;;;;;5071652;28;20478;-49
2023/02/16 07:02:53;;;;;;;9.90;4.40;;;;;;;;;;5071765;28;20036;-49
2023/02/16 07:05:19;;;;;;;11.77;4.07;;;;;;;;;;5071549;28;20445;-49
2023/02/16 07:07:44;;;;;;;8.52;3.55;;;;;;;;;;5071661;28;20111;-49
2023/02/16 07:10:10;;;;;;;8.85;4.65;;;;;;;;;;5071601;28;20028;-49
2023/02/16 07:12:35;;;;;;;7.88;4.60;;;;;;;;;;5071558;28;20044;-49
2023/02/16 07:15:00;;;;;;;10.65;4.85;;;;;;;;;;5071553;28;20269;-49
2023/02/16 07:17:26;;;;;;;9.48;4.95;;;;;;;;;;5070149;28;20024;-49
2023/02/16 07:19:51;;;;;;;5.82;4.07;;;;;;;;;;5070118;28;20521;-49
2023/02/16 07:22:17;;;;;;;6.22;3.72;;;;;;;;;;5070024;28;20081;-49
2023/02/16 07:24:42;;;;;;;10.65;4.57;;;;;;;;;;5071285;28;20029;-49
2023/02/16 07:27:08;;;;;;;8.32;3.65;;;;;;;;;;5071308;28;20021;-49
2023/02/16 07:29:34;;;;;;;6.78;3.78;;;;;;;;;;5071316;28;20040;-49
2023/02/16 07:31:59;;;;;;;7.65;4.30;;;;;;;;;;5071196;28;20027;-49
2023/02/16 07:34:25;;;;;;;5.80;4.28;;;;;;;;;;5070434;28;20066;-49
2023/02/16 07:36:50;;;;;;;10.77;5.05;;;;;;;;;;5071103;28;20033;-48
2023/02/16 07:39:15;;;;;;;11.00;3.83;;;;;;;;;;5073597;28;20031;-49
2023/02/16 07:41:41;;;;;;;9.02;4.75;;;;;;;;;;5075195;28;20055;-49
2023/02/16 07:44:07;;;;;;;6.22;4.10;;;;;;;;;;5075153;28;20029;-49
2023/02/16 07:46:32;;;;;;;6.30;3.70;;;;;;;;;;5075527;28;20025;-49
2023/02/16 07:48:57;;;;;;;6.07;4.05;;;;;;;;;;5075186;28;20391;-49
2023/02/16 07:51:24;;;;;;;4.90;3.47;;;;;;;;;;5075142;28;20024;-49
2023/02/16 07:53:50;;;;;;;5.45;3.47;;;;;;;;;;5073828;28;20120;-49
2023/02/16 07:56:19;;;;;;;6.88;3.50;;;;;;;;;;5075046;28;20115;-49
2023/02/16 07:58:46;;;;;;;6.88;4.38;;;;;;;;;;5074936;28;20025;-49
2023/02/16 08:01:12;;;;;;;8.98;3.67;;;;;;;;;;5073982;28;20029;-49
2023/02/16 08:03:38;;;;;;;11.27;5.03;;;;;;;;;;5073546;28;20123;-49
2023/02/16 08:06:04;;;;;;;6.90;4.13;;;;;;;;;;5073690;28;20103;-49
2023/02/16 08:08:30;;;;;;;6.20;4.20;;;;;;;;;;5074949;28;20493;-49
2023/02/16 08:10:55;;;;;;;3.92;2.90;;;;;;;;;;5074860;28;20028;-49
2023/02/16 08:13:21;;;;;;;5.35;3.10;;;;;;;;;;5074781;28;20078;-49
2023/02/16 08:15:46;;;;;;;8.85;3.78;;;;;;;;;;5074896;28;20027;-49
2023/02/16 08:18:12;;;;;;;9.15;4.70;;;;;;;;;;5073511;28;20478;-49
2023/02/16 08:20:37;;;;;;;7.47;3.35;;;;;;;;;;5074751;28;20021;-50
2023/02/16 08:23:04;;;;;;;4.60;3.00;;;;;;;;;;5074456;28;20139;-49
2023/02/16 08:25:32;;;;;;;5.43;3.88;;;;;;;;;;5074607;28;20024;-49
2023/02/16 08:27:57;;;;;;;5.38;3.72;;;;;;;;;;5074531;28;20035;-49
2023/02/16 08:30:23;;;;;;;5.53;3.50;;;;;;;;;;5074537;28;20024;-49
2023/02/16 08:32:50;;;;;;;7.88;4.18;;;;;;;;;;5074178;28;20076;-49
2023/02/16 08:35:16;;;;;;;8.77;3.65;;;;;;;;;;5074434;28;20044;-49
2023/02/16 08:37:41;;;;;;;5.50;4.10;;;;;;;;;;5056341;28;20025;-49
2023/02/16 08:40:07;;;;;;;10.48;5.40;;;;;;;;;;5073048;28;20016;-49
2023/02/16 08:42:33;;;;;;;6.63;3.75;;;;;;;;;;5072888;28;20082;-49
2023/02/16 08:44:58;;;;;;;5.43;3.30;;;;;;;;;;5072901;28;20036;-49
2023/02/16 08:47:23;;;;;;;7.88;4.57;;;;;;;;;;5074184;28;20039;-49
2023/02/16 08:49:49;;;;;;;7.97;4.93;;;;;;;;;;5073710;28;20031;-49
2023/02/16 08:52:15;;;;;;;6.95;5.25;;;;;;;;;;5072270;28;20550;-50
2023/02/16 08:54:40;;;;;;;6.90;4.43;;;;;;;;;;5073983;28;20475;-49
2023/02/16 08:57:06;;;;;;;11.63;4.40;;;;;;;;;;5073985;28;20028;-49
2023/02/16 08:59:33;;;;;;;10.10;4.57;;;;;;;;;;5072861;28;20028;-49
2023/02/16 09:01:58;;;;;;;10.52;4.30;;;;;;;;;;5072591;28;20451;-49
2023/02/16 09:04:24;;;;;;;11.57;5.50;;;;;;;;;;5072812;28;20094;-49
2023/02/16 09:06:50;;;;;;;6.32;3.83;;;;;;;;;;5072455;28;20051;-49
2023/02/16 09:09:16;;;;;;;10.52;3.05;;;;;;;;;;5073749;28;20101;-49
2023/02/16 09:11:41;;;;;;;7.90;4.13;;;;;;;;;;5073831;28;20036;-49
2023/02/16 09:14:08;;;;;;;3.08;2.47;;;;;;;;;;5073639;28;20040;-49
2023/02/16 09:16:38;;;;;;;7.20;3.78;;;;;;;;;;5073488;28;20033;-49
2023/02/16 09:19:03;;;;;;;5.40;3.20;;;;;;;;;;5073556;28;20033;-49
2023/02/16 09:21:32;;;;;;;6.78;3.80;;;;;;;;;;5073438;28;20024;-49
2023/02/16 09:24:00;;;;;;;9.10;4.07;;;;;;;;;;5073696;28;20038;-49
2023/02/16 09:26:26;;;;;;;6.50;3.40;;;;;;;;;;5073486;28;20379;-49
2023/02/16 09:28:52;;;;;;;15.88;4.85;;;;;;;;;;5073530;28;20028;-49
2023/02/16 09:31:25;;;;;;;11.32;4.80;;;;;;;;;;5073311;28;20029;-49
2023/02/16 09:33:51;;;;;;;8.88;4.88;;;;;;;;;;5071754;28;20147;-49
2023/02/16 09:36:17;;;;;;;9.07;3.88;;;;;;;;;;5071971;28;20040;-49
2023/02/16 09:38:43;;;;;;;6.03;3.30;;;;;;;;;;5073405;28;20395;-48
2023/02/16 09:41:20;;;;;;;6.95;3.83;;;;;;;;;;5073051;28;20079;-49
2023/02/16 09:43:52;;;;;;;6.32;4.10;;;;;;;;;;5072933;28;20093;-49
2023/02/16 09:46:21;;;;;;;7.40;3.97;;;;;;;;;;5073096;28;20051;-49
2023/02/16 09:48:48;;;;;;;7.70;4.32;;;;;;;;;;5072967;28;20021;-50
2023/02/16 09:51:19;;;;;;;7.55;3.40;;;;;;;;;;5073156;28;20024;-49
2023/02/16 09:53:46;;;;;;;8.30;4.20;;;;;;;;;;5073228;28;20191;-49
2023/02/16 09:56:21;;;;;;;6.22;4.03;;;;;;;;;;5072764;28;20486;-49
2023/02/16 09:59:05;;;;;;;4.78;3.63;;;;;;;;;;5072971;28;20036;-50
2023/02/16 10:01:45;;;;;;;7.63;4.25;;;;;;;;;;5072315;28;20036;-49
2023/02/16 10:04:29;;;;;;;13.50;5.88;;;;;;;;;;5072240;28;20086;-49
2023/02/16 10:07:32;;;;;;;12.05;4.55;;;;;;;;;;5072794;28;20119;-49
2023/02/16 10:09:59;;;;;;;10.70;4.97;;;;;;;;;;4990903;28;20085;-49
2023/02/16 10:12:28;;;;;;;10.93;4.65;;;;;;;;;;4974658;28;20125;-49
2023/02/16 10:14:56;;;;;;;8.68;5.28;;;;;;;;;;5030106;28;20049;-49
2023/02/16 10:17:43;;;;;;;17.77;7.35;;;;;;;;;;5072724;28;20066;-49
2023/02/16 10:20:15;;;;;;;21.70;10.73;;;;;;;;;;5072409;28;20020;-49
2023/02/16 10:22:43;;;;;;;20.48;9.05;;;;;;;;;;5072072;28;20073;-49
2023/02/16 10:25:15;;;;;;;21.30;11.20;;;;;;;;;;5072379;28;20021;-49
2023/02/16 10:27:45;;;;;;;16.42;9.88;;;;;;;;;;5072167;28;20103;-49
2023/02/16 10:30:16;;;;;;;26.50;10.95;;;;;;;;;;5072232;28;20074;-49
2023/02/16 10:32:53;;;;;;;25.67;13.00;;;;;;;;;;5070521;28;20139;-49
2023/02/16 10:35:21;;;;;;;18.60;10.73;;;;;;;;;;5072126;28;20032;-49
2023/02/16 10:37:56;;;;;;;30.15;11.80;;;;;;;;;;5072218;28;20032;-49
2023/02/16 10:40:26;;;;;;;32.53;13.68;;;;;;;;;;5071975;28;20479;-49
2023/02/16 10:42:57;;;;;;;27.92;13.10;;;;;;;;;;5071748;28;20040;-49
2023/02/16 10:45:49;;;;;;;33.13;12.80;;;;;;;;;;5071801;28;20490;-49
2023/02/16 10:48:15;;;;;;;35.63;16.67;;;;;;;;;;5067975;28;20037;-49
2023/02/16 10:50:42;;;;;;;38.35;15.45;;;;;;;;;;5071690;28;20020;-49
2023/02/16 10:53:12;;;;;;;50.97;18.08;;;;;;;;;;5071689;28;20475;-49
2023/02/16 10:55:37;;;;;;;54.97;19.45;;;;;;;;;;5070511;28;20024;-49
2023/02/16 10:58:03;;;;;;;47.90;19.45;;;;;;;;;;5072063;28;20082;-49
2023/02/16 11:00:45;;;;;;;45.33;19.40;;;;;;;;;;5071678;28;20413;-49
2023/02/16 11:03:11;;;;;;;41.45;15.32;;;;;;;;;;5071853;28;20119;-49
2023/02/16 11:05:38;;;;;;;54.00;18.50;;;;;;;;;;5071517;28;20071;-49
2023/02/16 11:08:05;;;;;;;21.98;10.18;;;;;;;;;;5071926;28;20403;-49
2023/02/16 11:10:35;;;;;;;50.58;21.10;;;;;;;;;;5071498;28;20044;-49
2023/02/16 11:13:01;;;;;;;59.17;22.55;;;;;;;;;;5071318;28;20036;-49
2023/02/16 11:15:27;;;;;;;58.35;23.63;;;;;;;;;;5071341;28;20070;-50
2023/02/16 11:18:03;;;;;;;69.32;23.90;;;;;;;;;;5071497;28;20035;-50
2023/02/16 11:20:32;;;;;;;52.70;22.48;;;;;;;;;;5071708;28;20115;-49
2023/02/16 11:23:12;;;;;;;46.97;21.25;;;;;;;;;;5071218;28;20028;-49
2023/02/16 11:25:38;;;;;;;43.90;19.15;;;;;;;;;;5071314;28;20074;-49
2023/02/16 11:28:04;;;;;;;69.35;26.02;;;;;;;;;;5071455;28;20405;-49
2023/02/16 11:30:31;;;;;;;55.47;21.15;;;;;;;;;;5071435;28;20060;-50
2023/02/16 11:32:58;;;;;;;56.00;22.23;;;;;;;;;;5070956;28;20045;-49
2023/02/16 11:35:26;;;;;;;53.10;19.85;;;;;;;;;;5071601;28;20056;-50
2023/02/16 11:37:51;;;;;;;43.63;20.50;;;;;;;;;;5071260;28;20020;-49
2023/02/16 11:40:19;;;;;;;54.58;23.30;;;;;;;;;;5071298;28;20379;-49
2023/02/16 11:42:47;;;;;;;65.68;22.23;;;;;;;;;;5069730;28;20536;-50
2023/02/16 11:45:21;;;;;;;53.97;21.52;;;;;;;;;;5071228;28;20050;-50
2023/02/16 11:47:51;;;;;;;62.78;22.58;;;;;;;;;;5071339;28;20029;-50
2023/02/16 11:50:22;;;;;;;76.38;29.05;;;;;;;;;;5071416;28;20078;-50
2023/02/16 11:52:49;;;;;;;49.35;16.60;;;;;;;;;;5071103;28;20125;-49
2023/02/16 11:55:40;;;;;;;61.40;22.38;;;;;;;;;;5071188;28;20020;-49
2023/02/16 11:58:32;;;;;;;58.55;22.13;;;;;;;;;;5066185;28;20044;-50
2023/02/16 12:01:15;;;;;;;61.78;19.15;;;;;;;;;;5065928;28;20106;-50
2023/02/16 12:03:53;;;;;;;59.63;23.50;;;;;;;;;;5069612;28;20040;-49
2023/02/16 12:06:19;;;;;;;51.22;23.95;;;;;;;;;;5071044;28;20032;-50
2023/02/16 12:08:44;;;;;;;46.47;20.50;;;;;;;;;;5070951;28;20457;-49
2023/02/16 12:11:28;;;;;;;53.75;21.38;;;;;;;;;;5070973;28;20029;-49
2023/02/16 12:14:07;;;;;;;59.30;25.25;;;;;;;;;;5071179;28;20391;-50
2023/02/16 12:16:42;;;;;;;43.53;20.88;;;;;;;;;;5071148;28;20016;-50
2023/02/16 12:19:27;;;;;;;62.72;23.58;;;;;;;;;;5070894;28;20036;-50
2023/02/16 12:21:57;;;;;;;70.28;22.15;;;;;;;;;;5070771;28;20116;-50
2023/02/16 12:24:26;;;;;;;51.30;21.00;;;;;;;;;;5070798;28;20037;-50
2023/02/16 12:26:54;;;;;;;53.53;22.38;;;;;;;;;;5073635;28;20024;-49
2023/02/16 12:29:32;;;;;;;50.15;21.48;;;;;;;;;;5074489;28;20021;-49
2023/02/16 12:32:01;;;;;;;46.45;21.70;;;;;;;;;;5074381;28;20378;-49
2023/02/16 12:34:53;;;;;;;53.00;21.00;;;;;;;;;;5074405;28;20040;-50
2023/02/16 12:37:18;;;;;;;33.15;18.60;;;;;;;;;;5069293;28;20475;-50
2023/02/16 12:39:46;;;;;;;50.70;22.45;;;;;;;;;;5074316;28;20029;-50
2023/02/16 12:42:31;;;;;;;54.42;22.45;;;;;;;;;;5074185;28;20089;-49
2023/02/16 12:44:59;;;;;;;56.75;20.83;;;;;;;;;;5074201;28;20028;-49
2023/02/16 12:47:28;;;;;;;63.42;24.05;;;;;;;;;;5074270;28;20047;-50
2023/02/16 12:50:05;;;;;;;59.72;23.75;;;;;;;;;;5072873;28;20117;-50
2023/02/16 12:52:36;;;;;;;58.72;25.00;;;;;;;;;;5074078;28;20039;-49
2023/02/16 12:55:19;;;;;;;49.50;21.60;;;;;;;;;;5074339;28;20131;-49
2023/02/16 12:57:58;;;;;;;53.90;20.15;;;;;;;;;;5074027;28;20071;-49
2023/02/16 13:00:36;;;;;;;62.35;24.13;;;;;;;;;;5073959;28;20549;-49
2023/02/16 13:03:22;;;;;;;39.25;20.40;;;;;;;;;;5073872;28;20051;-49
2023/02/16 13:05:51;;;;;;;40.13;17.85;;;;;;;;;;5032383;28;20060;-49
2023/02/16 13:08:21;;;;;;;54.22;23.05;;;;;;;;;;5073841;28;20488;-50
2023/02/16 13:10:52;;;;;;;48.85;17.92;;;;;;;;;;5073662;28;20475;-49
2023/02/16 13:13:20;;;;;;;50.05;18.63;;;;;;;;;;5073735;28;20111;-50
2023/02/16 13:15:50;;;;;;;42.63;20.05;;;;;;;;;;5073468;28;20430;-49
2023/02/16 13:18:19;;;;;;;40.70;19.30;;;;;;;;;;5073653;28;20040;-50
2023/02/16 13:20:58;;;;;;;50.92;23.80;;;;;;;;;;5072155;28;20029;-50
2023/02/16 13:23:29;;;;;;;59.65;24.17;;;;;;;;;;5073422;28;20483;-50
2023/02/16 13:26:13;;;;;;;63.17;25.48;;;;;;;;;;5073383;28;20024;-50
2023/02/16 13:28:48;;;;;;;64.97;26.27;;;;;;;;;;5073368;28;20047;-50
2023/02/16 13:31:23;;;;;;;61.92;25.65;;;;;;;;;;5073449;28;20028;-51
2023/02/16 13:33:54;;;;;;;35.75;17.02;;;;;;;;;;5073071;28;20155;-50
2023/02/16 13:36:38;;;;;;;40.13;17.33;;;;;;;;;;5071772;28;20098;-50
2023/02/16 13:39:10;;;;;;;27.42;15.00;;;;;;;;;;5073243;28;20024;-50
2023/02/16 13:41:55;;;;;;;17.77;11.83;;;;;;;;;;5073214;28;20108;-50
2023/02/16 13:44:41;;;;;;;54.47;23.05;;;;;;;;;;5073122;28;20040;-50
2023/02/16 13:47:10;;;;;;;57.80;22.73;;;;;;;;;;5072546;28;20181;-50
2023/02/16 13:49:42;;;;;;;39.08;19.58;;;;;;;;;;5073019;28;20115;-50
2023/02/16 13:52:29;;;;;;;35.75;14.48;;;;;;;;;;5072928;28;20463;-50
2023/02/16 13:54:57;;;;;;;39.60;15.70;;;;;;;;;;5072771;28;20025;-50
2023/02/16 13:57:42;;;;;;;53.65;23.63;;;;;;;;;;5071569;28;20016;-50
2023/02/16 14:00:27;;;;;;;67.70;25.83;;;;;;;;;;5021263;28;20082;-50
2023/02/16 14:02:58;;;;;;;55.17;24.75;;;;;;;;;;5071344;28;20064;-50
2023/02/16 14:05:29;;;;;;;17.75;10.23;;;;;;;;;;5071418;28;20490;-50
2023/02/16 14:08:09;;;;;;;61.47;23.23;;;;;;;;;;5072871;28;20035;-50
2023/02/16 14:10:53;;;;;;;65.55;24.48;;;;;;;;;;5071288;28;20031;-50
2023/02/16 14:13:25;;;;;;;60.72;26.17;;;;;;;;;;5072735;28;20032;-51
2023/02/16 14:15:52;;;;;;;50.78;23.33;;;;;;;;;;5072457;28;20478;-50
2023/02/16 14:18:26;;;;;;;61.47;27.17;;;;;;;;;;5072489;28;20532;-51
2023/02/16 14:21:03;;;;;;;64.88;22.15;;;;;;;;;;5071070;28;20082;-50
2023/02/16 14:23:33;;;;;;;57.67;25.25;;;;;;;;;;5072224;28;20043;-50
2023/02/16 14:26:06;;;;;;;42.80;19.25;;;;;;;;;;5072206;28;20024;-50
2023/02/16 14:28:32;;;;;;;37.22;16.92;;;;;;;;;;5072213;28;20548;-50
2023/02/16 14:30:59;;;;;;;43.45;18.85;;;;;;;;;;5072022;28;20020;-50
2023/02/16 14:33:31;;;;;;;52.60;21.73;;;;;;;;;;5071945;28;20052;-50
2023/02/16 14:35:57;;;;;;;55.70;23.75;;;;;;;;;;5072025;28;20089;-50
2023/02/16 14:38:28;;;;;;;62.28;24.15;;;;;;;;;;5070859;28;20028;-50
2023/02/16 14:41:01;;;;;;;53.20;23.75;;;;;;;;;;5071800;28;20025;-50
2023/02/16 14:43:30;;;;;;;42.72;17.63;;;;;;;;;;5070745;28;20075;-50
2023/02/16 14:46:15;;;;;;;56.10;22.30;;;;;;;;;;5070509;28;20025;-51
2023/02/16 14:49:00;;;;;;;47.08;19.75;;;;;;;;;;5071654;28;20074;-50
2023/02/16 14:51:28;;;;;;;58.03;20.73;;;;;;;;;;5070475;28;20131;-50
2023/02/16 14:53:54;;;;;;;46.90;20.25;;;;;;;;;;5071779;28;20024;-51
2023/02/16 14:56:26;;;;;;;59.80;27.83;;;;;;;;;;5071788;28;20036;-50
2023/02/16 14:58:56;;;;;;;50.67;20.30;;;;;;;;;;5070440;28;20029;-50
2023/02/16 15:01:22;;;;;;;43.22;20.20;;;;;;;;;;5070355;28;20036;-50
2023/02/16 15:03:49;;;;;;;58.92;22.67;;;;;;;;;;5071501;28;20044;-50
2023/02/16 15:06:24;;;;;;;48.45;20.50;;;;;;;;;;5071661;28;20025;-50
2023/02/16 15:08:57;;;;;;;57.20;23.23;;;;;;;;;;5071521;28;20036;-50
2023/02/16 15:14:27;;;;;;;48.38;19.67;;;;;;;;;;5071541;28;20040;-50
2023/02/16 15:16:53;;;;;;;55.55;21.80;;;;;;;;;;5071475;28;20114;-50
2023/02/16 15:19:23;;;;;;;38.33;19.73;;;;;;;;;;5071556;28;20040;-51
2023/02/16 15:22:05;;;;;;;40.45;19.13;;;;;;;;;;5071615;28;20025;-50
2023/02/16 15:24:33;;;;;;;47.22;20.13;;;;;;;;;;5071736;28;20139;-50
2023/02/16 15:27:00;;;;;;;46.92;19.02;;;;;;;;;;5071568;28;20023;-50
2023/02/16 15:29:27;;;;;;;44.47;20.52;;;;;;;;;;5071449;28;20039;-51
2023/02/16 15:31:52;;;;;;;42.90;19.70;;;;;;;;;;5071469;28;20017;-50
2023/02/16 15:34:27;;;;;;;44.60;19.52;;;;;;;;;;5071242;28;20529;-50
2023/02/16 15:36:53;;;;;;;59.35;20.35;;;;;;;;;;5069992;28;20025;-50